TimeCEST,TemperatureF,Dew PointF,Humidity,Sea Level PressureIn,VisibilityMPH,Wind Direction,Wind SpeedMPH,Gust SpeedMPH,PrecipitationIn,Events,Conditions,WindDirDegrees,DateUTC
6:55 AM,55.4,53.6,94,30.06,-9999.0,West,4.6,-,N/A,,Clear,270,2012-10-04 04:55:00
7:55 AM,55.4,51.8,88,30.06,-9999.0,West,3.5,-,N/A,,Clear,260,2012-10-04 05:55:00
8:00 AM,55,52,87,30.08,9,West,3.5,,,,,260,2012-10-04 06:00:00
8:55 AM,62.6,57.2,82,30.06,-9999.0,West,2.3,-,N/A,,Clear,280,2012-10-04 06:55:00
9:55 AM,68.0,57.2,68,30.06,-9999.0,WSW,3.5,-,N/A,,Clear,250,2012-10-04 07:55:00
10:55 AM,73.4,57.2,57,30.06,6.2,SW,3.5,-,N/A,,Partly Cloudy,220,2012-10-04 08:55:00
11:00 AM,73,56,46,30.08,12,SW,3.5,,,,Scattered Clouds,220,2012-10-04 09:00:00
11:55 AM,77.0,55.4,47,30.06,6.2,SW,2.3,-,N/A,,Partly Cloudy,230,2012-10-04 09:55:00
12:55 PM,78.8,53.6,42,30.04,6.2,SSE,3.5,-,N/A,,Partly Cloudy,150,2012-10-04 10:55:00
1:55 PM,80.6,53.6,39,30.04,6.2,SW,2.3,-,N/A,,Partly Cloudy,230,2012-10-04 11:55:00
2:00 PM,81,53,27,30.03,12,SW,2.3,,,,Scattered Clouds,230,2012-10-04 12:00:00
2:55 PM,80.6,51.8,37,30.01,6.2,West,3.5,-,N/A,,Partly Cloudy,270,2012-10-04 12:55:00
3:55 PM,80.6,51.8,37,30.01,6.2,East,11.5,-,N/A,,Partly Cloudy,80,2012-10-04 13:55:00
4:55 PM,77.0,62.6,61,30.01,6.2,ENE,12.7,-,N/A,,Partly Cloudy,70,2012-10-04 14:55:00
5:00 PM,76,62,53,30.01,12,ENE,12.7,,,,Scattered Clouds,70,2012-10-04 15:00:00
5:55 PM,75.2,62.6,65,30.01,6.2,East,9.2,-,N/A,,Partly Cloudy,80,2012-10-04 15:55:00
6:55 PM,71.6,62.6,73,30.01,-9999.0,East,5.8,-,N/A,,Clear,90,2012-10-04 16:55:00
7:55 PM,69.8,64.4,83,30.01,-9999.0,SSE,4.6,-,N/A,,Clear,150,2012-10-04 17:55:00
8:00 PM,69,64,78,30.03,7,SSE,4.6,,,,,150,2012-10-04 18:00:00
8:55 PM,68.0,66.2,94,30.04,-9999.0,SSE,5.8,-,N/A,,Clear,150,2012-10-04 18:55:00
9:55 PM,66.2,62.6,88,30.04,-9999.0,SE,2.3,-,N/A,,Clear,140,2012-10-04 19:55:00